首页
METAR-TAF:

METAR-TAF

机场 :

迪亚巴克尔, 土耳其

纬度: 37-53N, 经度: 040-11E, 海拔: 686米

当前天气观测

该预报发布于37分钟前的02:50 UTC
静风
温度 12°C
湿度 76%
气压 1013 hPa
能见度10公里或以上
1500米以下无云,无积雨云

METAR: LTCC 010250Z 00000KT CAVOK 12/08 Q1013 NOSIG RMK RWY16 14003KT 090V170

时间: 06:27 (03:27 UTC)

预报

该预报发布于4小时和47分钟前的22:40 UTC
预报有效从01日的 00点(UTC)到 01日的 24点(UTC)
风速2节,风向多变
能见度10公里或以上
1500米以下无云,无积雨云
成为
从 01日的 07点(UTC)到 01日的 10点(UTC)
风速12节,风向
少量云层高于4000英尺
散云层高于10000英尺

TAF: LTCC 312240Z 0100/0124 VRB02KT CAVOK BECMG 0107/0110 18012KT FEW040 SCT100

超过4000个机场的气象观测和天气预报(METAR&TAF报告)。

可查询的气象台以黄色和红色小点在地图上表示。

将鼠标移到小点上方,可查看气象台名称。

然后点击查看天气观测和预报。

如需切换地图:点击带黑十字的绿色按钮放大地图;点击带横线的绿色按钮缩小地图;或者点击绿色箭头查看邻近地区的地图。


METAR-TAF: